Point Hope, Alaska
Current Conditions -  °F | °C
As of 10:55 AM on Saturday 25 Oct 2014 (Local Time) from PALU Reporting Station
Clear Clear  
Wind Chill: 13°   Ceiling: Unl
Heat Index: 24°   Visibility: 10mi
Dew Point: 20°   Wind: 10mph
Humidity: 87%   Direction: 110°ESE
Pressure: 29.59"   Gusts: NA
Location:  68.35°N, 166.81°W
Report Text: PALU 251855Z AUTO 11009KT 10SM CLR M04/M06 A2959 RMK AO2 SLP021 T10451064
Loading
Personal Weather Stations






























Interactive Weather Map
Tropical Storm Tracking
New forecast layout! Learn more

10-Day Weather Forecast

Advertisements
Track Severe Weather on mobile